sensor_id;sensor_type;location;lat;lon;timestamp;temperature;humidity
33994;DHT22;20673;48.980;8.138;2023-04-01T00:01:10;9.80;99.90
33994;DHT22;20673;48.980;8.138;2023-04-01T00:03:37;9.80;99.90
33994;DHT22;20673;48.980;8.138;2023-04-01T00:06:03;9.80;99.90
33994;DHT22;20673;48.980;8.138;2023-04-01T00:08:28;9.80;99.90
33994;DHT22;20673;48.980;8.138;2023-04-01T00:10:54;9.80;99.90
33994;DHT22;20673;48.980;8.138;2023-04-01T00:13:20;9.80;99.90
33994;DHT22;20673;48.980;8.138;2023-04-01T00:15:47;9.80;99.90
33994;DHT22;20673;48.980;8.138;2023-04-01T00:18:13;9.80;99.90
33994;DHT22;20673;48.980;8.138;2023-04-01T00:20:39;9.80;99.90
33994;DHT22;20673;48.980;8.138;2023-04-01T00:23:06;9.80;99.90
33994;DHT22;20673;48.980;8.138;2023-04-01T00:25:32;9.80;99.90
33994;DHT22;20673;48.980;8.138;2023-04-01T00:27:58;9.90;99.90
33994;DHT22;20673;48.980;8.138;2023-04-01T00:30:23;9.90;99.90
33994;DHT22;20673;48.980;8.138;2023-04-01T00:32:52;10.00;99.90
33994;DHT22;20673;48.980;8.138;2023-04-01T00:35:18;10.00;99.90
33994;DHT22;20673;48.980;8.138;2023-04-01T00:37:44;10.10;99.90
33994;DHT22;20673;48.980;8.138;2023-04-01T00:40:20;10.10;99.90
33994;DHT22;20673;48.980;8.138;2023-04-01T00:42:37;10.10;99.90
33994;DHT22;20673;48.980;8.138;2023-04-01T00:47:49;10.20;99.90
33994;DHT22;20673;48.980;8.138;2023-04-01T00:50:15;10.30;99.90
33994;DHT22;20673;48.980;8.138;2023-04-01T00:52:41;10.30;99.90
33994;DHT22;20673;48.980;8.138;2023-04-01T00:55:07;10.40;99.90
33994;DHT22;20673;48.980;8.138;2023-04-01T00:57:35;10.30;99.90
33994;DHT22;20673;48.980;8.138;2023-04-01T01:00:04;10.40;99.90
33994;DHT22;20673;48.980;8.138;2023-04-01T01:02:29;10.40;99.90
33994;DHT22;20673;48.980;8.138;2023-04-01T01:04:56;10.40;99.90
33994;DHT22;20673;48.980;8.138;2023-04-01T01:07:32;10.50;99.90
33994;DHT22;20673;48.980;8.138;2023-04-01T01:12:46;10.60;99.90
33994;DHT22;20673;48.980;8.138;2023-04-01T01:15:27;10.70;99.90
33994;DHT22;20673;48.980;8.138;2023-04-01T01:25:55;10.70;99.90
33994;DHT22;20673;48.980;8.138;2023-04-01T01:30:55;10.70;99.90
33994;DHT22;20673;48.980;8.138;2023-04-01T01:35:48;10.60;99.90
33994;DHT22;20673;48.980;8.138;2023-04-01T01:38:18;10.60;99.90
33994;DHT22;20673;48.980;8.138;2023-04-01T01:40:46;10.50;99.90
33994;DHT22;20673;48.980;8.138;2023-04-01T01:43:13;10.60;99.90
33994;DHT22;20673;48.980;8.138;2023-04-01T01:45:40;10.70;99.90
33994;DHT22;20673;48.980;8.138;2023-04-01T01:48:07;10.80;99.90
33994;DHT22;20673;48.980;8.138;2023-04-01T01:50:34;10.70;99.90
33994;DHT22;20673;48.980;8.138;2023-04-01T01:53:07;10.70;99.90
33994;DHT22;20673;48.980;8.138;2023-04-01T01:55:35;10.60;99.90
33994;DHT22;20673;48.980;8.138;2023-04-01T02:00:34;10.50;99.90
33994;DHT22;20673;48.980;8.138;2023-04-01T02:03:00;10.40;99.90
33994;DHT22;20673;48.980;8.138;2023-04-01T02:05:27;10.30;99.90
33994;DHT22;20673;48.980;8.138;2023-04-01T02:08:03;10.40;99.90
33994;DHT22;20673;48.980;8.138;2023-04-01T02:10:29;10.30;99.90
33994;DHT22;20673;48.980;8.138;2023-04-01T02:12:56;10.30;99.90
33994;DHT22;20673;48.980;8.138;2023-04-01T02:15:23;10.20;99.90
33994;DHT22;20673;48.980;8.138;2023-04-01T02:17:50;10.20;99.90
33994;DHT22;20673;48.980;8.138;2023-04-01T02:20:18;10.20;99.90
33994;DHT22;20673;48.980;8.138;2023-04-01T02:22:53;10.20;99.90
33994;DHT22;20673;48.980;8.138;2023-04-01T02:25:29;10.20;99.90
33994;DHT22;20673;48.980;8.138;2023-04-01T02:27:47;10.20;99.90
33994;DHT22;20673;48.980;8.138;2023-04-01T02:30:14;10.20;99.90
33994;DHT22;20673;48.980;8.138;2023-04-01T02:32:40;10.20;99.90
33994;DHT22;20673;48.980;8.138;2023-04-01T02:35:07;10.20;99.90
33994;DHT22;20673;48.980;8.138;2023-04-01T02:37:34;10.20;99.90
33994;DHT22;20673;48.980;8.138;2023-04-01T02:40:00;10.20;99.90
33994;DHT22;20673;48.980;8.138;2023-04-01T02:42:26;10.20;99.90
33994;DHT22;20673;48.980;8.138;2023-04-01T02:44:52;10.20;99.90
33994;DHT22;20673;48.980;8.138;2023-04-01T02:47:18;10.20;99.90
33994;DHT22;20673;48.980;8.138;2023-04-01T02:49:43;10.30;99.90
33994;DHT22;20673;48.980;8.138;2023-04-01T02:52:09;10.20;99.90
33994;DHT22;20673;48.980;8.138;2023-04-01T02:54:35;10.10;99.90
33994;DHT22;20673;48.980;8.138;2023-04-01T02:57:01;10.10;99.90
33994;DHT22;20673;48.980;8.138;2023-04-01T02:59:27;10.10;99.90
33994;DHT22;20673;48.980;8.138;2023-04-01T03:01:53;10.10;99.90
33994;DHT22;20673;48.980;8.138;2023-04-01T03:04:18;10.00;99.90
33994;DHT22;20673;48.980;8.138;2023-04-01T03:06:44;10.00;99.90
33994;DHT22;20673;48.980;8.138;2023-04-01T03:09:10;9.90;99.90
33994;DHT22;20673;48.980;8.138;2023-04-01T03:11:36;9.80;99.90
33994;DHT22;20673;48.980;8.138;2023-04-01T03:14:01;9.70;99.90
33994;DHT22;20673;48.980;8.138;2023-04-01T03:16:27;9.60;99.90
33994;DHT22;20673;48.980;8.138;2023-04-01T03:18:53;9.60;99.90
33994;DHT22;20673;48.980;8.138;2023-04-01T03:21:25;9.60;99.90
33994;DHT22;20673;48.980;8.138;2023-04-01T03:23:48;9.50;99.90
33994;DHT22;20673;48.980;8.138;2023-04-01T03:26:14;9.50;99.90
33994;DHT22;20673;48.980;8.138;2023-04-01T03:28:40;9.50;99.90
33994;DHT22;20673;48.980;8.138;2023-04-01T03:31:06;9.50;99.90
33994;DHT22;20673;48.980;8.138;2023-04-01T03:33:32;9.50;99.90
33994;DHT22;20673;48.980;8.138;2023-04-01T03:35:57;9.50;99.90
33994;DHT22;20673;48.980;8.138;2023-04-01T03:38:23;9.50;99.90
33994;DHT22;20673;48.980;8.138;2023-04-01T03:40:49;9.50;99.90
33994;DHT22;20673;48.980;8.138;2023-04-01T03:43:15;9.50;99.90
33994;DHT22;20673;48.980;8.138;2023-04-01T03:45:48;9.50;99.90
33994;DHT22;20673;48.980;8.138;2023-04-01T03:48:14;9.50;99.90
33994;DHT22;20673;48.980;8.138;2023-04-01T03:50:40;9.50;99.90
33994;DHT22;20673;48.980;8.138;2023-04-01T03:53:06;9.40;99.90
33994;DHT22;20673;48.980;8.138;2023-04-01T03:55:32;9.40;99.90
33994;DHT22;20673;48.980;8.138;2023-04-01T03:57:59;9.40;99.90
33994;DHT22;20673;48.980;8.138;2023-04-01T04:00:24;9.40;99.90
33994;DHT22;20673;48.980;8.138;2023-04-01T04:02:50;9.40;99.90
33994;DHT22;20673;48.980;8.138;2023-04-01T04:05:16;9.40;99.90
33994;DHT22;20673;48.980;8.138;2023-04-01T04:07:41;9.40;99.90
33994;DHT22;20673;48.980;8.138;2023-04-01T04:10:07;9.40;99.90
33994;DHT22;20673;48.980;8.138;2023-04-01T04:12:33;9.30;99.90
33994;DHT22;20673;48.980;8.138;2023-04-01T04:14:59;9.30;99.90
33994;DHT22;20673;48.980;8.138;2023-04-01T04:17:25;9.30;99.90
33994;DHT22;20673;48.980;8.138;2023-04-01T04:19:51;9.30;99.90
33994;DHT22;20673;48.980;8.138;2023-04-01T04:22:16;9.40;99.90
33994;DHT22;20673;48.980;8.138;2023-04-01T04:24:42;9.40;99.90
33994;DHT22;20673;48.980;8.138;2023-04-01T04:27:08;9.40;99.90
33994;DHT22;20673;48.980;8.138;2023-04-01T04:29:33;9.50;99.90
33994;DHT22;20673;48.980;8.138;2023-04-01T04:31:59;9.60;99.90
33994;DHT22;20673;48.980;8.138;2023-04-01T04:34:25;9.60;99.90
33994;DHT22;20673;48.980;8.138;2023-04-01T04:36:51;9.70;99.90
33994;DHT22;20673;48.980;8.138;2023-04-01T04:39:16;9.80;99.90
33994;DHT22;20673;48.980;8.138;2023-04-01T04:41:42;9.80;99.90
33994;DHT22;20673;48.980;8.138;2023-04-01T04:44:08;9.80;99.90
33994;DHT22;20673;48.980;8.138;2023-04-01T04:46:33;9.80;99.90
33994;DHT22;20673;48.980;8.138;2023-04-01T04:48:59;9.80;99.90
33994;DHT22;20673;48.980;8.138;2023-04-01T04:51:25;9.80;99.90
33994;DHT22;20673;48.980;8.138;2023-04-01T04:53:51;9.80;99.90
33994;DHT22;20673;48.980;8.138;2023-04-01T04:56:17;9.90;99.90
33994;DHT22;20673;48.980;8.138;2023-04-01T04:58:43;9.90;99.90
33994;DHT22;20673;48.980;8.138;2023-04-01T05:01:10;9.90;99.90
33994;DHT22;20673;48.980;8.138;2023-04-01T05:03:36;9.90;99.90
33994;DHT22;20673;48.980;8.138;2023-04-01T05:06:02;9.90;99.90
33994;DHT22;20673;48.980;8.138;2023-04-01T05:08:28;10.00;99.90
33994;DHT22;20673;48.980;8.138;2023-04-01T05:10:54;9.90;99.90
33994;DHT22;20673;48.980;8.138;2023-04-01T05:13:19;9.90;99.90
33994;DHT22;20673;48.980;8.138;2023-04-01T05:15:45;9.90;99.90
33994;DHT22;20673;48.980;8.138;2023-04-01T05:18:11;10.00;99.90
33994;DHT22;20673;48.980;8.138;2023-04-01T05:20:36;10.00;99.90
33994;DHT22;20673;48.980;8.138;2023-04-01T05:23:02;9.90;99.90
33994;DHT22;20673;48.980;8.138;2023-04-01T05:25:28;10.00;99.90
33994;DHT22;20673;48.980;8.138;2023-04-01T05:27:54;9.90;99.90
33994;DHT22;20673;48.980;8.138;2023-04-01T05:30:19;9.90;99.90
33994;DHT22;20673;48.980;8.138;2023-04-01T05:32:45;9.80;99.90
33994;DHT22;20673;48.980;8.138;2023-04-01T05:35:11;9.70;99.90
33994;DHT22;20673;48.980;8.138;2023-04-01T05:37:37;9.70;99.90
33994;DHT22;20673;48.980;8.138;2023-04-01T05:40:03;9.60;99.90
33994;DHT22;20673;48.980;8.138;2023-04-01T05:42:29;9.50;99.90
33994;DHT22;20673;48.980;8.138;2023-04-01T05:44:55;9.50;99.90
33994;DHT22;20673;48.980;8.138;2023-04-01T05:47:21;9.40;99.90
33994;DHT22;20673;48.980;8.138;2023-04-01T05:49:47;9.30;99.90
33994;DHT22;20673;48.980;8.138;2023-04-01T05:52:13;9.30;99.90
33994;DHT22;20673;48.980;8.138;2023-04-01T05:54:38;9.30;99.90
33994;DHT22;20673;48.980;8.138;2023-04-01T05:57:04;9.20;99.90
33994;DHT22;20673;48.980;8.138;2023-04-01T05:59:30;9.10;99.90
33994;DHT22;20673;48.980;8.138;2023-04-01T06:01:57;9.10;99.90
33994;DHT22;20673;48.980;8.138;2023-04-01T06:04:22;9.10;99.90
33994;DHT22;20673;48.980;8.138;2023-04-01T06:06:48;9.10;99.90
33994;DHT22;20673;48.980;8.138;2023-04-01T06:09:18;9.10;99.90
33994;DHT22;20673;48.980;8.138;2023-04-01T06:14:22;9.00;99.90
33994;DHT22;20673;48.980;8.138;2023-04-01T06:38:24;8.90;99.90
33994;DHT22;20673;48.980;8.138;2023-04-01T06:42:43;9.00;99.90
33994;DHT22;20673;48.980;8.138;2023-04-01T06:50:11;9.00;99.90
33994;DHT22;20673;48.980;8.138;2023-04-01T06:52:50;9.00;99.90
33994;DHT22;20673;48.980;8.138;2023-04-01T06:57:50;9.10;99.90
33994;DHT22;20673;48.980;8.138;2023-04-01T07:00:13;9.10;99.90
33994;DHT22;20673;48.980;8.138;2023-04-01T07:02:38;9.10;99.90
33994;DHT22;20673;48.980;8.138;2023-04-01T07:05:03;9.10;99.90
33994;DHT22;20673;48.980;8.138;2023-04-01T07:07:48;9.10;99.90
33994;DHT22;20673;48.980;8.138;2023-04-01T07:10:02;9.10;99.90
33994;DHT22;20673;48.980;8.138;2023-04-01T07:14:55;9.00;99.90
33994;DHT22;20673;48.980;8.138;2023-04-01T07:17:28;9.00;99.90
33994;DHT22;20673;48.980;8.138;2023-04-01T07:19:52;9.00;99.90
33994;DHT22;20673;48.980;8.138;2023-04-01T07:22:23;9.00;99.90
33994;DHT22;20673;48.980;8.138;2023-04-01T07:24:47;9.00;99.90
33994;DHT22;20673;48.980;8.138;2023-04-01T07:27:13;9.00;99.90
33994;DHT22;20673;48.980;8.138;2023-04-01T07:29:39;8.90;99.90
33994;DHT22;20673;48.980;8.138;2023-04-01T07:34:50;8.90;99.90
33994;DHT22;20673;48.980;8.138;2023-04-01T07:37:26;8.90;99.90
33994;DHT22;20673;48.980;8.138;2023-04-01T07:42:24;8.90;99.90
33994;DHT22;20673;48.980;8.138;2023-04-01T07:47:39;8.90;99.90
33994;DHT22;20673;48.980;8.138;2023-04-01T07:50:14;8.90;99.90
33994;DHT22;20673;48.980;8.138;2023-04-01T07:52:44;8.90;99.90
33994;DHT22;20673;48.980;8.138;2023-04-01T07:55:14;9.00;99.90
33994;DHT22;20673;48.980;8.138;2023-04-01T07:57:39;9.00;99.90
33994;DHT22;20673;48.980;8.138;2023-04-01T08:00:10;9.10;99.90
33994;DHT22;20673;48.980;8.138;2023-04-01T08:10:25;9.30;99.90
33994;DHT22;20673;48.980;8.138;2023-04-01T08:13:01;9.20;99.90
33994;DHT22;20673;48.980;8.138;2023-04-01T08:15:27;9.30;99.90
33994;DHT22;20673;48.980;8.138;2023-04-01T08:17:57;9.30;99.90
33994;DHT22;20673;48.980;8.138;2023-04-01T08:22:50;9.30;99.90
33994;DHT22;20673;48.980;8.138;2023-04-01T08:25:18;9.30;99.90
33994;DHT22;20673;48.980;8.138;2023-04-01T08:27:45;9.40;99.90
33994;DHT22;20673;48.980;8.138;2023-04-01T08:30:19;9.40;99.90
33994;DHT22;20673;48.980;8.138;2023-04-01T08:32:50;9.40;99.90
33994;DHT22;20673;48.980;8.138;2023-04-01T08:35:31;9.40;99.90
33994;DHT22;20673;48.980;8.138;2023-04-01T08:38:00;9.40;99.90
33994;DHT22;20673;48.980;8.138;2023-04-01T08:40:42;9.40;99.90
33994;DHT22;20673;48.980;8.138;2023-04-01T08:51:06;9.50;99.90
33994;DHT22;20673;48.980;8.138;2023-04-01T09:01:26;9.50;99.90
33994;DHT22;20673;48.980;8.138;2023-04-01T09:03:58;9.50;99.90
33994;DHT22;20673;48.980;8.138;2023-04-01T09:06:31;9.60;99.90
33994;DHT22;20673;48.980;8.138;2023-04-01T09:22:25;9.70;99.90
33994;DHT22;20673;48.980;8.138;2023-04-01T09:27:29;9.70;99.90
33994;DHT22;20673;48.980;8.138;2023-04-01T09:37:40;9.60;99.90
33994;DHT22;20673;48.980;8.138;2023-04-01T09:40:21;9.60;99.90
33994;DHT22;20673;48.980;8.138;2023-04-01T10:01:20;9.70;99.90
33994;DHT22;20673;48.980;8.138;2023-04-01T10:14:42;9.70;99.90
33994;DHT22;20673;48.980;8.138;2023-04-01T10:17:25;9.70;99.90
33994;DHT22;20673;48.980;8.138;2023-04-01T10:22:39;9.70;99.90
33994;DHT22;20673;48.980;8.138;2023-04-01T10:30:29;9.70;99.90
33994;DHT22;20673;48.980;8.138;2023-04-01T11:01:51;10.10;99.90
33994;DHT22;20673;48.980;8.138;2023-04-01T11:20:19;10.20;99.90
33994;DHT22;20673;48.980;8.138;2023-04-01T11:27:49;10.20;99.90
33994;DHT22;20673;48.980;8.138;2023-04-01T11:30:14;10.20;99.90
33994;DHT22;20673;48.980;8.138;2023-04-01T11:35:36;10.10;99.90
33994;DHT22;20673;48.980;8.138;2023-04-01T11:43:36;10.00;99.90
33994;DHT22;20673;48.980;8.138;2023-04-01T11:46:08;10.00;99.90
33994;DHT22;20673;48.980;8.138;2023-04-01T11:48:33;10.00;99.90
33994;DHT22;20673;48.980;8.138;2023-04-01T11:58:59;10.00;99.90
33994;DHT22;20673;48.980;8.138;2023-04-01T12:09:29;10.20;99.90
33994;DHT22;20673;48.980;8.138;2023-04-01T12:22:27;10.50;99.90
33994;DHT22;20673;48.980;8.138;2023-04-01T12:32:47;10.60;99.90
33994;DHT22;20673;48.980;8.138;2023-04-01T12:35:15;10.50;99.90
33994;DHT22;20673;48.980;8.138;2023-04-01T12:45:29;10.80;99.90
33994;DHT22;20673;48.980;8.138;2023-04-01T12:55:46;11.00;99.90
33994;DHT22;20673;48.980;8.138;2023-04-01T13:03:41;11.10;99.90
33994;DHT22;20673;48.980;8.138;2023-04-01T13:09:01;11.20;99.90
33994;DHT22;20673;48.980;8.138;2023-04-01T13:16:27;11.10;99.90
33994;DHT22;20673;48.980;8.138;2023-04-01T13:21:33;11.00;99.90
33994;DHT22;20673;48.980;8.138;2023-04-01T13:24:18;11.00;99.90
33994;DHT22;20673;48.980;8.138;2023-04-01T13:26:45;10.80;99.90
33994;DHT22;20673;48.980;8.138;2023-04-01T13:29:15;10.80;99.90
33994;DHT22;20673;48.980;8.138;2023-04-01T13:37:24;10.80;99.90
33994;DHT22;20673;48.980;8.138;2023-04-01T13:39:41;10.80;99.90
33994;DHT22;20673;48.980;8.138;2023-04-01T13:44:36;10.90;99.90
33994;DHT22;20673;48.980;8.138;2023-04-01T13:52:24;10.90;99.90
33994;DHT22;20673;48.980;8.138;2023-04-01T13:54:55;10.90;99.90
33994;DHT22;20673;48.980;8.138;2023-04-01T13:58:04;10.90;99.90
33994;DHT22;20673;48.980;8.138;2023-04-01T14:07:59;10.70;99.90
33994;DHT22;20673;48.980;8.138;2023-04-01T14:20:41;10.40;99.90
33994;DHT22;20673;48.980;8.138;2023-04-01T14:26:53;10.40;99.90
33994;DHT22;20673;48.980;8.138;2023-04-01T14:28:31;10.30;99.90
33994;DHT22;20673;48.980;8.138;2023-04-01T14:38:42;10.40;99.90
33994;DHT22;20673;48.980;8.138;2023-04-01T14:41:16;10.40;99.90
33994;DHT22;20673;48.980;8.138;2023-04-01T14:44:00;10.40;99.90
33994;DHT22;20673;48.980;8.138;2023-04-01T14:48:59;10.30;99.90
33994;DHT22;20673;48.980;8.138;2023-04-01T14:54:03;10.40;99.90
33994;DHT22;20673;48.980;8.138;2023-04-01T14:56:35;10.40;99.90
33994;DHT22;20673;48.980;8.138;2023-04-01T14:59:01;10.40;99.90
33994;DHT22;20673;48.980;8.138;2023-04-01T15:09:27;10.50;99.90
33994;DHT22;20673;48.980;8.138;2023-04-01T15:14:40;10.60;99.90
33994;DHT22;20673;48.980;8.138;2023-04-01T15:17:13;10.60;99.90
33994;DHT22;20673;48.980;8.138;2023-04-01T15:19:38;10.60;99.90
33994;DHT22;20673;48.980;8.138;2023-04-01T15:27:33;10.60;99.90
33994;DHT22;20673;48.980;8.138;2023-04-01T15:38:02;10.80;99.90
33994;DHT22;20673;48.980;8.138;2023-04-01T15:40:31;10.90;99.90
33994;DHT22;20673;48.980;8.138;2023-04-01T15:48:13;10.90;99.90
33994;DHT22;20673;48.980;8.138;2023-04-01T15:50:58;10.90;99.90
33994;DHT22;20673;48.980;8.138;2023-04-01T15:58:16;11.00;99.90
33994;DHT22;20673;48.980;8.138;2023-04-01T16:00:48;11.00;99.90
33994;DHT22;20673;48.980;8.138;2023-04-01T16:08:50;11.10;99.90
33994;DHT22;20673;48.980;8.138;2023-04-01T16:11:15;11.00;99.90
33994;DHT22;20673;48.980;8.138;2023-04-01T16:21:37;11.00;99.90
33994;DHT22;20673;48.980;8.138;2023-04-01T16:24:10;11.10;99.90
33994;DHT22;20673;48.980;8.138;2023-04-01T16:31:37;11.00;99.90
33994;DHT22;20673;48.980;8.138;2023-04-01T16:34:16;11.10;99.90
33994;DHT22;20673;48.980;8.138;2023-04-01T16:36:43;11.10;99.90
33994;DHT22;20673;48.980;8.138;2023-04-01T16:44:30;10.80;99.90
33994;DHT22;20673;48.980;8.138;2023-04-01T16:46:59;10.80;99.90
33994;DHT22;20673;48.980;8.138;2023-04-01T16:49:42;10.70;99.90
33994;DHT22;20673;48.980;8.138;2023-04-01T16:59:44;10.40;99.90
33994;DHT22;20673;48.980;8.138;2023-04-01T17:04:40;10.40;99.90
33994;DHT22;20673;48.980;8.138;2023-04-01T17:12:47;10.30;99.90
33994;DHT22;20673;48.980;8.138;2023-04-01T17:15:16;10.30;99.90
33994;DHT22;20673;48.980;8.138;2023-04-01T17:22:55;10.40;99.90
33994;DHT22;20673;48.980;8.138;2023-04-01T17:30:27;10.50;99.90
33994;DHT22;20673;48.980;8.138;2023-04-01T17:35:39;10.60;99.90
33994;DHT22;20673;48.980;8.138;2023-04-01T17:40:54;10.50;99.90
33994;DHT22;20673;48.980;8.138;2023-04-01T17:43:25;10.40;99.90
33994;DHT22;20673;48.980;8.138;2023-04-01T17:45:54;10.40;99.90
33994;DHT22;20673;48.980;8.138;2023-04-01T17:56:11;10.20;99.90
33994;DHT22;20673;48.980;8.138;2023-04-01T18:06:17;9.90;99.90
33994;DHT22;20673;48.980;8.138;2023-04-01T18:08:46;9.90;99.90
33994;DHT22;20673;48.980;8.138;2023-04-01T18:14:02;9.90;99.90
33994;DHT22;20673;48.980;8.138;2023-04-01T18:19:22;9.80;99.90
33994;DHT22;20673;48.980;8.138;2023-04-01T18:21:48;9.80;99.90
33994;DHT22;20673;48.980;8.138;2023-04-01T18:24:24;9.80;99.90
33994;DHT22;20673;48.980;8.138;2023-04-01T18:26:43;9.80;99.90
33994;DHT22;20673;48.980;8.138;2023-04-01T18:31:45;9.70;99.90
33994;DHT22;20673;48.980;8.138;2023-04-01T18:39:13;9.50;99.90
33994;DHT22;20673;48.980;8.138;2023-04-01T18:46:39;9.40;99.90
33994;DHT22;20673;48.980;8.138;2023-04-01T18:51:38;9.40;99.90
33994;DHT22;20673;48.980;8.138;2023-04-01T18:56:48;9.30;99.90
33994;DHT22;20673;48.980;8.138;2023-04-01T18:59:16;9.20;99.90
33994;DHT22;20673;48.980;8.138;2023-04-01T19:04:36;9.00;99.90
33994;DHT22;20673;48.980;8.138;2023-04-01T19:07:02;9.00;99.90
33994;DHT22;20673;48.980;8.138;2023-04-01T19:09:44;8.80;99.90
33994;DHT22;20673;48.980;8.138;2023-04-01T19:26:00;8.90;99.90
33994;DHT22;20673;48.980;8.138;2023-04-01T19:27:37;9.00;99.90
33994;DHT22;20673;48.980;8.138;2023-04-01T19:37:51;9.00;99.90
33994;DHT22;20673;48.980;8.138;2023-04-01T19:40:36;9.00;99.90
33994;DHT22;20673;48.980;8.138;2023-04-01T19:43:03;9.00;99.90
33994;DHT22;20673;48.980;8.138;2023-04-01T19:45:39;9.00;99.90
33994;DHT22;20673;48.980;8.138;2023-04-01T19:50:55;9.10;99.90
33994;DHT22;20673;48.980;8.138;2023-04-01T19:53:23;9.10;99.90
33994;DHT22;20673;48.980;8.138;2023-04-01T19:58:33;9.10;99.90
33994;DHT22;20673;48.980;8.138;2023-04-01T20:00:59;9.10;99.90
33994;DHT22;20673;48.980;8.138;2023-04-01T20:11:01;9.20;99.90
33994;DHT22;20673;48.980;8.138;2023-04-01T20:13:34;9.20;99.90
33994;DHT22;20673;48.980;8.138;2023-04-01T20:18:38;9.20;99.90
33994;DHT22;20673;48.980;8.138;2023-04-01T20:21:18;9.20;99.90
33994;DHT22;20673;48.980;8.138;2023-04-01T20:23:42;9.30;99.90
33994;DHT22;20673;48.980;8.138;2023-04-01T20:26:10;9.40;99.90
33994;DHT22;20673;48.980;8.138;2023-04-01T20:28:38;9.40;99.90
33994;DHT22;20673;48.980;8.138;2023-04-01T20:33:57;9.50;99.90
33994;DHT22;20673;48.980;8.138;2023-04-01T20:39:19;9.40;99.90
33994;DHT22;20673;48.980;8.138;2023-04-01T20:44:20;9.50;99.90
33994;DHT22;20673;48.980;8.138;2023-04-01T20:52:10;9.60;99.90
33994;DHT22;20673;48.980;8.138;2023-04-01T20:54:45;9.50;99.90
33994;DHT22;20673;48.980;8.138;2023-04-01T21:02:30;9.50;99.90
33994;DHT22;20673;48.980;8.138;2023-04-01T21:22:43;9.40;99.90
33994;DHT22;20673;48.980;8.138;2023-04-01T21:30:22;9.40;99.90
33994;DHT22;20673;48.980;8.138;2023-04-01T21:32:52;9.30;99.90
33994;DHT22;20673;48.980;8.138;2023-04-01T21:42:57;9.30;99.90
33994;DHT22;20673;48.980;8.138;2023-04-01T21:50:37;9.30;99.90
33994;DHT22;20673;48.980;8.138;2023-04-01T22:00:42;9.30;99.90
33994;DHT22;20673;48.980;8.138;2023-04-01T22:03:22;9.30;99.90
33994;DHT22;20673;48.980;8.138;2023-04-01T22:05:48;9.30;99.90
33994;DHT22;20673;48.980;8.138;2023-04-01T22:10:41;9.30;99.90
33994;DHT22;20673;48.980;8.138;2023-04-01T22:13:14;9.20;99.90
33994;DHT22;20673;48.980;8.138;2023-04-01T22:21:03;9.20;99.90
33994;DHT22;20673;48.980;8.138;2023-04-01T22:23:31;9.20;99.90
33994;DHT22;20673;48.980;8.138;2023-04-01T22:26:00;9.30;99.90
33994;DHT22;20673;48.980;8.138;2023-04-01T22:31:02;9.20;99.90
33994;DHT22;20673;48.980;8.138;2023-04-01T22:36:20;9.20;99.90
33994;DHT22;20673;48.980;8.138;2023-04-01T22:41:19;9.10;99.90
33994;DHT22;20673;48.980;8.138;2023-04-01T22:43:46;9.10;99.90
33994;DHT22;20673;48.980;8.138;2023-04-01T22:56:54;9.10;99.90
33994;DHT22;20673;48.980;8.138;2023-04-01T22:59:35;9.10;99.90
33994;DHT22;20673;48.980;8.138;2023-04-01T23:01:58;9.10;99.90
33994;DHT22;20673;48.980;8.138;2023-04-01T23:04:27;9.10;99.90
33994;DHT22;20673;48.980;8.138;2023-04-01T23:06:57;9.10;99.90
33994;DHT22;20673;48.980;8.138;2023-04-01T23:11:52;9.10;99.90
33994;DHT22;20673;48.980;8.138;2023-04-01T23:14:26;9.10;99.90
33994;DHT22;20673;48.980;8.138;2023-04-01T23:17:01;9.10;99.90
33994;DHT22;20673;48.980;8.138;2023-04-01T23:19:36;9.10;99.90
33994;DHT22;20673;48.980;8.138;2023-04-01T23:29:27;9.00;99.90
33994;DHT22;20673;48.980;8.138;2023-04-01T23:32:00;9.00;99.90
33994;DHT22;20673;48.980;8.138;2023-04-01T23:34:25;9.00;99.90
33994;DHT22;20673;48.980;8.138;2023-04-01T23:36:52;9.00;99.90
33994;DHT22;20673;48.980;8.138;2023-04-01T23:42:06;8.90;99.90
33994;DHT22;20673;48.980;8.138;2023-04-01T23:44:33;8.90;99.90
33994;DHT22;20673;48.980;8.138;2023-04-01T23:46:59;8.90;99.90
33994;DHT22;20673;48.980;8.138;2023-04-01T23:50:00;8.90;99.90
33994;DHT22;20673;48.980;8.138;2023-04-01T23:57:31;8.90;99.90
